createdAt,value
2018-08-28T00:01:25.314Z,13.50
2018-08-28T00:04:02.529Z,13.50
2018-08-28T00:06:38.317Z,13.50
2018-08-28T00:09:13.044Z,13.60
2018-08-28T00:11:47.771Z,13.60
2018-08-28T00:14:21.893Z,13.60
2018-08-28T00:16:56.605Z,13.60
2018-08-28T00:19:31.311Z,13.50
2018-08-28T00:22:06.045Z,13.50
2018-08-28T00:24:40.173Z,13.40
2018-08-28T00:27:15.958Z,13.40
2018-08-28T00:29:50.059Z,13.50
2018-08-28T00:32:24.235Z,13.50
2018-08-28T00:34:58.950Z,13.50
2018-08-28T00:37:33.663Z,13.50
2018-08-28T00:40:08.397Z,13.60
2018-08-28T00:42:43.135Z,13.60
2018-08-28T00:45:17.260Z,13.60
2018-08-28T00:47:53.008Z,13.60
2018-08-28T00:50:27.735Z,13.50
2018-08-28T00:53:02.482Z,13.50
2018-08-28T00:55:36.639Z,13.50
2018-08-28T00:58:11.383Z,13.50
2018-08-28T01:00:46.553Z,13.30
2018-08-28T01:03:21.283Z,13.40
2018-08-28T01:05:55.968Z,13.40
2018-08-28T01:08:30.686Z,13.50
2018-08-28T01:11:05.408Z,13.50
2018-08-28T01:13:40.154Z,13.50
2018-08-28T01:16:14.849Z,13.60
2018-08-28T01:18:51.024Z,13.70
2018-08-28T01:21:26.029Z,13.70
2018-08-28T01:24:01.996Z,13.80
2018-08-28T01:26:37.195Z,13.90
2018-08-28T01:29:12.678Z,13.90
2018-08-28T01:31:47.460Z,14.00
2018-08-28T01:34:22.182Z,14.00
2018-08-28T01:36:56.995Z,14.10
2018-08-28T01:39:37.488Z,14.10
2018-08-28T01:42:23.210Z,14.10
2018-08-28T01:44:58.763Z,14.10
2018-08-28T01:47:34.864Z,14.10
2018-08-28T01:50:14.420Z,14.10
2018-08-28T01:52:49.140Z,14.10
2018-08-28T01:55:26.655Z,14.00
2018-08-28T01:58:02.466Z,14.00
2018-08-28T02:00:37.478Z,14.00
2018-08-28T02:03:12.350Z,14.00
2018-08-28T02:05:48.703Z,14.00
2018-08-28T02:08:24.838Z,14.00
2018-08-28T02:10:59.559Z,14.00
2018-08-28T02:13:35.292Z,13.90
2018-08-28T02:16:15.090Z,13.90
2018-08-28T02:18:49.864Z,13.80
2018-08-28T02:21:24.685Z,13.90
2018-08-28T02:23:59.383Z,13.90
2018-08-28T02:26:35.171Z,13.90
2018-08-28T02:29:11.150Z,13.90
2018-08-28T02:31:45.879Z,13.90
2018-08-28T02:34:21.621Z,13.90
2018-08-28T02:36:56.346Z,13.80
2018-08-28T02:39:31.080Z,13.80
2018-08-28T02:42:05.965Z,13.70
2018-08-28T02:44:40.667Z,13.70
2018-08-28T02:47:16.475Z,13.70
2018-08-28T02:49:51.165Z,13.70
2018-08-28T02:52:25.931Z,13.70
2018-08-28T02:55:00.631Z,13.70
2018-08-28T02:57:36.502Z,13.70
2018-08-28T03:00:11.215Z,13.70
2018-08-28T03:02:45.990Z,13.70
2018-08-28T03:05:20.687Z,13.70
2018-08-28T03:07:55.459Z,13.70
2018-08-28T03:10:31.211Z,13.70
2018-08-28T03:13:06.947Z,13.70
2018-08-28T03:15:41.819Z,13.70
2018-08-28T03:18:16.669Z,13.60
2018-08-28T03:20:51.378Z,13.60
2018-08-28T03:23:26.123Z,13.60
2018-08-28T03:26:00.851Z,13.50
2018-08-28T03:28:35.611Z,13.50
2018-08-28T03:31:10.296Z,13.40
2018-08-28T03:33:45.268Z,13.40
2018-08-28T03:36:19.970Z,13.40
2018-08-28T03:38:54.805Z,13.30
2018-08-28T03:41:31.940Z,13.20
2018-08-28T03:44:07.668Z,13.20
2018-08-28T03:46:42.366Z,13.10
2018-08-28T03:49:17.186Z,13.10
2018-08-28T03:51:51.328Z,13.10
2018-08-28T03:54:25.568Z,13.10
2018-08-28T03:56:59.874Z,13.00
2018-08-28T03:59:34.043Z,13.10
2018-08-28T04:02:08.188Z,13.10
2018-08-28T04:04:43.035Z,13.00
2018-08-28T04:07:17.738Z,13.00
2018-08-28T04:09:52.571Z,13.00
2018-08-28T04:12:27.442Z,13.00
2018-08-28T04:15:02.212Z,13.00
2018-08-28T04:17:40.770Z,13.10
2018-08-28T04:20:15.649Z,13.10
2018-08-28T04:22:50.378Z,13.10
2018-08-28T04:25:25.104Z,13.10
2018-08-28T04:28:00.851Z,13.10
2018-08-28T04:30:36.715Z,13.10
2018-08-28T04:36:11.916Z,13.10
2018-08-28T04:38:46.606Z,13.20
2018-08-28T04:41:22.366Z,13.20
2018-08-28T04:43:57.053Z,13.20
2018-08-28T04:46:32.798Z,13.20
2018-08-28T04:49:07.493Z,13.20
2018-08-28T04:51:42.313Z,13.30
2018-08-28T04:54:17.064Z,13.30
2018-08-28T04:56:51.923Z,13.30
2018-08-28T04:59:26.611Z,13.40
2018-08-28T05:02:01.363Z,13.40
2018-08-28T05:04:36.051Z,13.40
2018-08-28T05:07:11.857Z,13.50
2018-08-28T05:09:46.551Z,13.50
2018-08-28T05:12:21.309Z,13.60
2018-08-28T05:14:57.099Z,13.60
2018-08-28T05:17:31.894Z,13.70
2018-08-28T05:20:07.027Z,13.70
2018-08-28T05:22:42.814Z,13.80
2018-08-28T05:25:17.531Z,13.80
2018-08-28T05:27:52.359Z,13.90
2018-08-28T05:30:27.073Z,14.00
2018-08-28T05:33:02.012Z,14.10
2018-08-28T05:35:36.771Z,14.20
2018-08-28T05:38:12.542Z,14.30
2018-08-28T05:40:48.380Z,14.40
2018-08-28T05:43:24.148Z,14.40
2018-08-28T05:45:59.849Z,14.60
2018-08-28T05:48:35.627Z,14.60
2018-08-28T05:51:10.346Z,14.80
2018-08-28T05:53:45.155Z,14.80
2018-08-28T05:56:20.943Z,14.90
2018-08-28T05:58:55.831Z,14.90
2018-08-28T06:01:30.542Z,15.00
2018-08-28T06:04:05.265Z,15.00
2018-08-28T06:06:39.963Z,15.10
2018-08-28T06:09:14.683Z,15.30
2018-08-28T06:11:49.374Z,15.40
2018-08-28T06:14:24.135Z,15.50
2018-08-28T06:16:58.879Z,15.60
2018-08-28T06:19:33.594Z,15.70
2018-08-28T06:22:08.314Z,15.90
2018-08-28T06:27:30.267Z,16.30
2018-08-28T06:30:05.871Z,16.90
2018-08-28T06:32:44.963Z,17.30
2018-08-28T06:35:19.706Z,17.80
2018-08-28T06:37:55.205Z,18.00
2018-08-28T06:40:31.134Z,18.20
2018-08-28T06:43:07.360Z,18.20
2018-08-28T06:45:42.630Z,18.50
2018-08-28T06:48:18.364Z,18.90
2018-08-28T06:51:08.717Z,18.90
2018-08-28T06:53:53.160Z,18.90
2018-08-28T06:56:32.338Z,19.20
2018-08-28T06:59:07.477Z,19.20
2018-08-28T07:01:42.278Z,19.60
2018-08-28T07:04:17.026Z,19.60
2018-08-28T07:06:51.804Z,19.90
2018-08-28T07:09:26.476Z,20.00
2018-08-28T07:12:01.525Z,19.80
2018-08-28T07:14:46.685Z,19.90
2018-08-28T07:17:25.313Z,20.00
2018-08-28T07:20:00.179Z,20.30
2018-08-28T07:22:34.969Z,20.40
2018-08-28T07:25:10.722Z,20.50
2018-08-28T07:27:45.432Z,21.10
2018-08-28T07:30:20.149Z,21.20
2018-08-28T07:32:54.871Z,21.00
2018-08-28T07:35:29.569Z,20.70
2018-08-28T07:38:04.457Z,20.80
2018-08-28T07:40:40.188Z,20.80
2018-08-28T07:43:14.915Z,21.20
2018-08-28T07:45:49.656Z,21.40
2018-08-28T07:48:25.423Z,21.40
2018-08-28T07:51:00.445Z,21.50
2018-08-28T07:53:35.180Z,21.70
2018-08-28T07:56:09.939Z,21.50
2018-08-28T07:58:45.689Z,21.50
2018-08-28T08:01:26.419Z,21.70
2018-08-28T08:04:01.267Z,22.30
2018-08-28T08:06:35.983Z,22.00
2018-08-28T08:09:11.679Z,21.90
2018-08-28T08:11:46.414Z,21.60
2018-08-28T08:14:21.124Z,21.50
2018-08-28T08:16:55.874Z,21.70
2018-08-28T08:19:30.592Z,21.80
2018-08-28T08:22:06.379Z,21.90
2018-08-28T08:24:41.356Z,21.50
2018-08-28T08:27:16.111Z,21.50
2018-08-28T08:29:50.797Z,22.20
2018-08-28T08:32:25.546Z,22.00
2018-08-28T08:35:00.312Z,21.90
2018-08-28T08:37:35.083Z,22.40
2018-08-28T08:40:09.823Z,22.10
2018-08-28T08:42:44.564Z,21.80
2018-08-28T08:45:20.405Z,23.10
2018-08-28T08:47:56.127Z,23.40
2018-08-28T08:50:30.990Z,23.50
2018-08-28T08:53:05.721Z,23.10
2018-08-28T08:55:40.431Z,22.10
2018-08-28T08:58:16.207Z,21.80
2018-08-28T09:00:50.968Z,21.50
2018-08-28T09:03:25.768Z,21.80
2018-08-28T09:06:00.485Z,21.90
2018-08-28T09:12:23.896Z,23.40
2018-08-28T09:14:58.969Z,23.90
2018-08-28T09:17:33.681Z,24.80
2018-08-28T09:20:08.070Z,25.20
2018-08-28T09:22:42.537Z,24.90
2018-08-28T09:25:18.018Z,24.10
2018-08-28T09:27:52.460Z,24.40
2018-08-28T09:30:26.870Z,24.80
2018-08-28T09:33:02.628Z,23.80
2018-08-28T09:35:55.798Z,22.90
2018-08-28T09:38:54.080Z,22.80
2018-08-28T09:41:46.131Z,22.20
2018-08-28T09:44:20.940Z,22.40
2018-08-28T09:46:59.379Z,22.80
2018-08-28T09:49:34.408Z,23.70
2018-08-28T09:52:17.238Z,24.10
2018-08-28T09:54:55.652Z,24.60
2018-08-28T09:57:32.598Z,24.30
2018-08-28T10:00:08.850Z,23.90
2018-08-28T10:02:43.711Z,24.50
2018-08-28T10:05:18.290Z,24.60
2018-08-28T10:07:53.781Z,24.60
2018-08-28T10:10:28.380Z,24.70
2018-08-28T10:13:03.032Z,25.50
2018-08-28T10:15:43.352Z,26.40
2018-08-28T10:18:18.164Z,26.20
2018-08-28T10:20:52.538Z,26.20
2018-08-28T10:23:34.269Z,25.90
2018-08-28T10:26:46.008Z,25.50
2018-08-28T10:29:49.249Z,25.00
2018-08-28T10:32:44.998Z,25.40
2018-08-28T10:35:34.544Z,25.70
2018-08-28T10:41:30.289Z,25.60
2018-08-28T10:44:06.870Z,25.70
2018-08-28T10:46:41.640Z,25.80
2018-08-28T10:49:16.491Z,25.50
2018-08-28T10:51:51.244Z,24.90
2018-08-28T10:54:26.011Z,24.70
2018-08-28T10:57:00.735Z,24.20
2018-08-28T10:59:35.479Z,23.90
2018-08-28T11:02:10.179Z,23.40
2018-08-28T11:04:44.901Z,24.20
2018-08-28T11:07:19.614Z,24.30
2018-08-28T11:09:54.384Z,24.30
2018-08-28T11:12:30.379Z,24.60
2018-08-28T11:15:05.299Z,24.10
2018-08-28T11:17:39.974Z,24.40
2018-08-28T11:20:14.708Z,24.50
2018-08-28T11:22:49.421Z,24.50
2018-08-28T11:25:24.321Z,24.30
2018-08-28T11:28:00.156Z,24.40
2018-08-28T11:30:34.950Z,24.70
2018-08-28T11:33:09.711Z,24.70
2018-08-28T11:35:44.514Z,24.20
2018-08-28T11:38:19.468Z,24.40
2018-08-28T11:40:54.507Z,24.20
2018-08-28T11:43:29.217Z,23.70
2018-08-28T11:46:04.932Z,23.70
2018-08-28T11:48:39.910Z,23.90
2018-08-28T11:51:15.652Z,23.40
2018-08-28T11:53:51.382Z,23.40
2018-08-28T11:56:26.128Z,23.40
2018-08-28T11:59:04.692Z,23.50
2018-08-28T12:01:39.459Z,23.50
2018-08-28T12:04:15.353Z,23.70
2018-08-28T12:06:50.274Z,23.70
2018-08-28T12:09:25.384Z,23.60
2018-08-28T12:12:00.074Z,22.60
2018-08-28T12:17:22.472Z,22.50
2018-08-28T12:19:57.251Z,22.60
2018-08-28T12:22:32.271Z,22.70
2018-08-28T12:25:07.543Z,22.80
2018-08-28T12:27:42.239Z,23.00
2018-08-28T12:30:16.950Z,23.10
2018-08-28T12:32:51.636Z,22.90
2018-08-28T12:35:26.368Z,22.80
2018-08-28T12:38:01.068Z,22.60
2018-08-28T12:40:35.828Z,22.10
2018-08-28T12:43:10.511Z,21.80
2018-08-28T12:45:45.268Z,21.60
2018-08-28T12:48:19.973Z,21.30
2018-08-28T12:50:54.684Z,21.10
2018-08-28T12:53:29.388Z,21.10
2018-08-28T12:56:04.107Z,21.00
2018-08-28T12:58:38.786Z,21.00
2018-08-28T13:01:14.540Z,21.00
2018-08-28T13:03:49.304Z,21.10
2018-08-28T13:06:24.978Z,21.00
2018-08-28T13:08:59.740Z,20.90
2018-08-28T13:11:34.505Z,20.90
2018-08-28T13:14:09.236Z,20.90
2018-08-28T13:16:43.988Z,21.00
2018-08-28T13:19:19.772Z,21.10
2018-08-28T13:21:55.556Z,21.20
2018-08-28T13:24:30.240Z,21.30
2018-08-28T13:27:05.080Z,21.40
2018-08-28T13:29:39.792Z,21.20
2018-08-28T13:32:14.588Z,21.20
2018-08-28T13:34:49.379Z,21.20
2018-08-28T13:37:24.144Z,20.90
2018-08-28T13:39:58.886Z,20.90
2018-08-28T13:42:33.675Z,20.90
2018-08-28T13:45:08.974Z,21.00
2018-08-28T13:47:43.675Z,21.20
2018-08-28T13:50:19.454Z,21.30
2018-08-28T13:52:54.160Z,21.30
2018-08-28T13:55:29.867Z,21.10
2018-08-28T13:58:04.573Z,21.30
2018-08-28T14:00:39.324Z,21.30
2018-08-28T14:03:14.080Z,21.60
2018-08-28T14:05:48.847Z,21.80
2018-08-28T14:08:23.539Z,21.80
2018-08-28T14:10:58.276Z,22.00
2018-08-28T14:13:34.081Z,21.90
2018-08-28T14:16:08.929Z,22.10
2018-08-28T14:18:43.684Z,22.10
2018-08-28T14:21:19.432Z,22.10
2018-08-28T14:23:54.181Z,22.10
2018-08-28T14:26:30.027Z,22.10
2018-08-28T14:29:05.816Z,22.20
2018-08-28T14:31:40.542Z,22.20
2018-08-28T14:34:15.308Z,22.30
2018-08-28T14:36:50.034Z,22.30
2018-08-28T14:39:24.799Z,22.20
2018-08-28T14:41:59.550Z,22.20
2018-08-28T14:44:34.302Z,22.20
2018-08-28T14:47:09.030Z,22.20
2018-08-28T14:49:44.007Z,22.20
2018-08-28T14:52:18.949Z,22.30
2018-08-28T14:54:53.712Z,22.30
2018-08-28T14:57:28.445Z,22.10
2018-08-28T15:00:04.569Z,22.10
2018-08-28T15:02:39.282Z,22.20
2018-08-28T15:05:14.087Z,22.20
2018-08-28T15:07:49.958Z,22.30
2018-08-28T15:10:25.732Z,22.10
2018-08-28T15:13:00.444Z,22.00
2018-08-28T15:15:36.239Z,21.80
2018-08-28T15:18:11.095Z,21.90
2018-08-28T15:20:45.867Z,22.00
2018-08-28T15:23:20.720Z,22.10
2018-08-28T15:25:55.483Z,22.10
2018-08-28T15:28:30.170Z,22.10
2018-08-28T15:31:06.128Z,22.10
2018-08-28T15:33:40.852Z,22.10
2018-08-28T15:36:16.672Z,21.90
2018-08-28T15:38:51.395Z,21.70
2018-08-28T15:41:26.138Z,21.90
2018-08-28T15:44:00.914Z,21.70
2018-08-28T15:46:35.756Z,21.80
2018-08-28T15:49:10.450Z,21.80
2018-08-28T15:51:45.227Z,21.80
2018-08-28T15:54:19.907Z,21.80
2018-08-28T15:56:54.656Z,21.90
2018-08-28T15:59:29.441Z,21.80
2018-08-28T16:02:05.243Z,21.90
2018-08-28T16:04:45.621Z,21.80
2018-08-28T16:07:20.511Z,21.70
2018-08-28T16:09:55.212Z,21.70
2018-08-28T16:12:30.012Z,21.70
2018-08-28T16:15:04.797Z,21.60
2018-08-28T16:17:39.543Z,21.50
2018-08-28T16:20:14.223Z,21.30
2018-08-28T16:22:52.548Z,21.20
2018-08-28T16:25:27.266Z,21.10
2018-08-28T16:28:02.023Z,21.00
2018-08-28T16:30:36.763Z,21.00
2018-08-28T16:33:12.621Z,21.00
2018-08-28T16:35:47.380Z,21.00
2018-08-28T16:38:22.279Z,20.90
2018-08-28T16:40:57.045Z,20.80
2018-08-28T16:43:32.016Z,20.80
2018-08-28T16:46:06.698Z,20.80
2018-08-28T16:48:42.500Z,20.70
2018-08-28T16:51:17.248Z,20.70
2018-08-28T16:53:52.010Z,20.60
2018-08-28T16:56:26.703Z,20.50
2018-08-28T16:59:01.411Z,20.40
2018-08-28T17:01:36.294Z,20.30
2018-08-28T17:04:11.111Z,20.20
2018-08-28T17:06:45.791Z,20.10
2018-08-28T17:09:20.604Z,19.90
2018-08-28T17:11:55.331Z,19.80
2018-08-28T17:14:30.123Z,19.70
2018-08-28T17:17:05.976Z,19.60
2018-08-28T17:19:40.731Z,19.60
2018-08-28T17:22:15.431Z,19.50
2018-08-28T17:24:51.189Z,19.50
2018-08-28T17:27:26.967Z,19.50
2018-08-28T17:30:01.713Z,19.40
2018-08-28T17:32:36.459Z,19.40
2018-08-28T17:35:11.228Z,19.30
2018-08-28T17:37:45.898Z,19.30
2018-08-28T17:40:20.619Z,19.30
2018-08-28T17:42:56.316Z,19.20
2018-08-28T17:45:31.046Z,19.20
2018-08-28T17:48:06.248Z,19.10
2018-08-28T17:50:41.015Z,19.00
2018-08-28T17:53:16.715Z,19.00
2018-08-28T17:55:52.511Z,18.90
2018-08-28T17:58:27.216Z,18.80
2018-08-28T18:01:01.944Z,18.80
2018-08-28T18:03:36.628Z,18.70
2018-08-28T18:06:11.397Z,18.60
2018-08-28T18:08:46.122Z,18.60
2018-08-28T18:11:21.952Z,18.60
2018-08-28T18:13:56.719Z,18.50
2018-08-28T18:16:32.530Z,18.50
2018-08-28T18:19:07.399Z,18.50
2018-08-28T18:21:43.111Z,18.40
2018-08-28T18:24:18.814Z,18.40
2018-08-28T18:26:54.591Z,18.40
2018-08-28T18:29:29.312Z,18.40
2018-08-28T18:32:04.098Z,18.30
2018-08-28T18:34:39.896Z,18.30
2018-08-28T18:37:14.757Z,18.30
2018-08-28T18:39:49.424Z,18.30
2018-08-28T18:42:25.264Z,18.20
2018-08-28T18:44:59.977Z,18.20
2018-08-28T18:47:34.779Z,18.20
2018-08-28T18:50:09.553Z,18.20
2018-08-28T18:52:44.378Z,18.20
2018-08-28T18:55:19.101Z,18.10
2018-08-28T18:57:53.874Z,18.00
2018-08-28T19:00:28.566Z,18.00
2018-08-28T19:03:03.397Z,18.00
2018-08-28T19:05:38.231Z,18.00
2018-08-28T19:08:27.512Z,17.90
2018-08-28T19:11:03.310Z,17.90
2018-08-28T19:13:38.058Z,17.90
2018-08-28T19:16:12.756Z,17.90
2018-08-28T19:18:47.520Z,17.80
2018-08-28T19:21:30.269Z,17.80
2018-08-28T19:24:05.135Z,17.80
2018-08-28T19:26:39.868Z,17.70
2018-08-28T19:29:14.578Z,17.80
2018-08-28T19:31:49.328Z,17.70
2018-08-28T19:34:24.220Z,17.80
2018-08-28T19:36:58.892Z,17.60
2018-08-28T19:39:33.584Z,17.60
2018-08-28T19:42:38.986Z,17.60
2018-08-28T19:45:33.260Z,17.60
2018-08-28T19:48:18.884Z,17.60
2018-08-28T19:51:05.113Z,17.60
2018-08-28T19:54:04.431Z,17.60
2018-08-28T19:56:43.655Z,17.60
2018-08-28T19:59:30.301Z,17.60
2018-08-28T20:02:26.628Z,17.60
2018-08-28T20:05:07.617Z,17.50
2018-08-28T20:10:46.865Z,17.50
2018-08-28T20:13:27.016Z,17.40
2018-08-28T20:16:18.268Z,17.40
2018-08-28T20:19:13.025Z,17.40
2018-08-28T20:21:53.208Z,17.40
2018-08-28T20:24:33.787Z,17.40
2018-08-28T20:27:08.751Z,17.40
2018-08-28T20:29:44.622Z,17.40
2018-08-28T20:32:19.572Z,17.40
2018-08-28T20:34:54.292Z,17.40
2018-08-28T20:37:29.159Z,17.40
2018-08-28T20:40:04.099Z,17.40
2018-08-28T20:42:40.563Z,17.40
2018-08-28T20:45:15.384Z,17.40
2018-08-28T20:47:50.132Z,17.40
2018-08-28T20:50:25.918Z,17.40
2018-08-28T20:53:00.625Z,17.40
2018-08-28T20:55:35.380Z,17.40
2018-08-28T20:58:10.088Z,17.40
2018-08-28T21:00:44.838Z,17.40
2018-08-28T21:03:19.593Z,17.40
2018-08-28T21:05:54.380Z,17.40
2018-08-28T21:08:29.090Z,17.40
2018-08-28T21:11:03.834Z,17.40
2018-08-28T21:13:38.555Z,17.40
2018-08-28T21:16:13.291Z,17.40
2018-08-28T21:18:47.998Z,17.40
2018-08-28T21:21:23.744Z,17.40
2018-08-28T21:24:22.087Z,17.30
2018-08-28T21:26:57.923Z,17.30
2018-08-28T21:29:33.144Z,17.30
2018-08-28T21:32:08.237Z,17.20
2018-08-28T21:34:43.935Z,17.20
2018-08-28T21:37:18.691Z,17.10
2018-08-28T21:39:53.399Z,17.10
2018-08-28T21:42:28.161Z,17.10
2018-08-28T21:45:02.886Z,17.10
2018-08-28T21:47:37.623Z,17.10
2018-08-28T21:50:12.374Z,17.10
2018-08-28T21:52:47.090Z,17.10
2018-08-28T21:55:22.799Z,17.10
2018-08-28T21:57:57.599Z,17.10
2018-08-28T22:00:35.888Z,17.10
2018-08-28T22:03:12.817Z,17.10
2018-08-28T22:05:53.394Z,17.00
2018-08-28T22:08:38.620Z,17.10
2018-08-28T22:11:18.193Z,17.00
2018-08-28T22:13:53.032Z,17.00
2018-08-28T22:16:27.747Z,17.00
2018-08-28T22:19:03.494Z,17.00
2018-08-28T22:21:39.204Z,17.00
2018-08-28T22:24:13.970Z,17.00
2018-08-28T22:26:51.691Z,17.00
2018-08-28T22:29:28.154Z,16.90
2018-08-28T22:32:21.356Z,16.90
2018-08-28T22:35:06.614Z,16.90
2018-08-28T22:37:41.615Z,16.90
2018-08-28T22:40:17.361Z,16.80
2018-08-28T22:42:52.013Z,16.80
2018-08-28T22:45:26.804Z,16.70
2018-08-28T22:48:01.527Z,16.70
2018-08-28T22:50:36.340Z,16.70
2018-08-28T22:53:11.138Z,16.70
2018-08-28T22:55:53.651Z,16.80
2018-08-28T22:58:29.629Z,16.70
2018-08-28T23:01:11.705Z,16.70
2018-08-28T23:08:20.402Z,16.70
2018-08-28T23:10:56.135Z,16.70
2018-08-28T23:13:30.879Z,16.60
2018-08-28T23:16:05.657Z,16.60
2018-08-28T23:18:40.320Z,16.60
2018-08-28T23:21:16.116Z,16.60
2018-08-28T23:23:50.779Z,16.60
2018-08-28T23:26:25.531Z,16.50
2018-08-28T23:29:00.285Z,16.50
2018-08-28T23:31:36.109Z,16.50
2018-08-28T23:34:10.836Z,16.40
2018-08-28T23:36:45.577Z,16.40
2018-08-28T23:39:20.236Z,16.40
2018-08-28T23:41:54.991Z,16.30
2018-08-28T23:44:29.695Z,16.20
2018-08-28T23:47:05.571Z,16.10
2018-08-28T23:49:40.289Z,16.00
2018-08-28T23:52:15.048Z,15.90
2018-08-28T23:54:50.792Z,15.90
2018-08-28T23:57:26.508Z,15.80
